VGEG/CGP METAR and TAF weather

Enter ICAO airport designator
Station Type Date Time Source
VGEG METAR 2019/06/16 17:05 UTC NOAA

VGEG 161700 18004KT 5000 RERA SCT018 FEW030CB BKN100 29/28 Q1002 NOSIG


Station Type Date Time Source
VGEG Decoded METAR 2019/06/16 17:05 UTC NOAA

Chittagong Patenga , Bangladesh (VGEG) 22-16N 091-49E 6M
Jun 16, 2019 - 01:05 PM EDT / 2019.06.16 1705 UTC
Wind: from the S (180 degrees) at 5 MPH (4 KT):0
Visibility: 3 mile(s):0
Sky conditions: mostly cloudy
Weather: rain during the past hour; Cumulonimbus clouds observed
Temperature: 84 F (29 C)
Dew Point: 82 F (28 C)
Relative Humidity: 94%
Pressure (altimeter): 29.59 in. Hg (1002 hPa)
ob: VGEG 161700 18004KT 5000 RERA SCT018 FEW030CB BKN100 29/28 Q1002 NOSIG
cycle: 17

Station Type Date Time Source
VGEG TAF 2019/06/16 18:33 UTC NOAA

TAF TAF VGEG 161700Z 1618/1724 13004KT 4000 HZ SCT015 SCT110
BECMG 1705/1707 22010KT 5000 HZ SCT017 SCT120
BECMG 1714/1716 12004KT 4000 HZ SCT015 BKN110
TEMPO 1717/1724 30015KT 2000 -RA/TSRA SCT007 FEW028CB BKN090

Example: see airport list